sensor_id;sensor_type;location;lat;lon;timestamp;P1;durP1;ratioP1;P2;durP2;ratioP2
42092;SDS011;28974;50.316;18.960;2022-11-25T00:10:39;341.52;;;115.93;;
42092;SDS011;28974;50.316;18.960;2022-11-25T00:22:39;325.05;;;109.40;;
42092;SDS011;28974;50.316;18.960;2022-11-25T00:34:39;340.40;;;119.00;;
42092;SDS011;28974;50.316;18.960;2022-11-25T00:46:41;355.30;;;121.40;;
42092;SDS011;28974;50.316;18.960;2022-11-25T00:58:42;347.90;;;120.82;;
42092;SDS011;28974;50.316;18.960;2022-11-25T01:10:43;329.98;;;120.63;;
42092;SDS011;28974;50.316;18.960;2022-11-25T01:22:43;340.58;;;122.57;;
42092;SDS011;28974;50.316;18.960;2022-11-25T01:34:44;322.30;;;117.90;;
42092;SDS011;28974;50.316;18.960;2022-11-25T01:47:01;325.50;;;116.25;;
42092;SDS011;28974;50.316;18.960;2022-11-25T01:59:02;306.70;;;111.97;;
42092;SDS011;28974;50.316;18.960;2022-11-25T02:11:02;302.48;;;109.40;;
42092;SDS011;28974;50.316;18.960;2022-11-25T02:47:36;276.25;;;99.80;;
42092;SDS011;28974;50.316;18.960;2022-11-25T02:59:37;258.20;;;89.00;;
42092;SDS011;28974;50.316;18.960;2022-11-25T03:11:38;234.75;;;86.72;;
42092;SDS011;28974;50.316;18.960;2022-11-25T03:23:57;233.73;;;82.47;;
42092;SDS011;28974;50.316;18.960;2022-11-25T03:35:57;225.98;;;82.05;;
42092;SDS011;28974;50.316;18.960;2022-11-25T03:47:57;228.10;;;82.18;;
42092;SDS011;28974;50.316;18.960;2022-11-25T03:59:59;211.07;;;79.93;;
42092;SDS011;28974;50.316;18.960;2022-11-25T04:12:06;238.98;;;85.65;;
42092;SDS011;28974;50.316;18.960;2022-11-25T04:24:29;241.07;;;89.18;;
42092;SDS011;28974;50.316;18.960;2022-11-25T04:36:30;277.65;;;99.20;;
42092;SDS011;28974;50.316;18.960;2022-11-25T04:48:31;305.50;;;103.13;;
42092;SDS011;28974;50.316;18.960;2022-11-25T05:00:31;263.73;;;95.07;;
42092;SDS011;28974;50.316;18.960;2022-11-25T05:12:32;242.68;;;89.65;;
42092;SDS011;28974;50.316;18.960;2022-11-25T05:24:34;281.92;;;93.40;;
42092;SDS011;28974;50.316;18.960;2022-11-25T05:36:34;279.95;;;96.70;;
42092;SDS011;28974;50.316;18.960;2022-11-25T05:48:36;283.77;;;99.15;;
42092;SDS011;28974;50.316;18.960;2022-11-25T06:00:37;275.23;;;97.93;;
42092;SDS011;28974;50.316;18.960;2022-11-25T06:12:43;267.93;;;97.60;;
42092;SDS011;28974;50.316;18.960;2022-11-25T06:24:43;233.17;;;83.90;;
42092;SDS011;28974;50.316;18.960;2022-11-25T06:36:44;233.48;;;83.93;;
42092;SDS011;28974;50.316;18.960;2022-11-25T06:48:44;237.80;;;89.95;;
42092;SDS011;28974;50.316;18.960;2022-11-25T07:00:44;250.48;;;90.80;;
42092;SDS011;28974;50.316;18.960;2022-11-25T07:12:45;219.52;;;83.22;;
42092;SDS011;28974;50.316;18.960;2022-11-25T07:24:45;228.32;;;86.45;;
42092;SDS011;28974;50.316;18.960;2022-11-25T07:36:46;222.27;;;84.57;;
42092;SDS011;28974;50.316;18.960;2022-11-25T07:48:47;215.32;;;85.25;;
42092;SDS011;28974;50.316;18.960;2022-11-25T08:00:47;224.95;;;87.25;;
42092;SDS011;28974;50.316;18.960;2022-11-25T08:12:47;237.45;;;90.65;;
42092;SDS011;28974;50.316;18.960;2022-11-25T08:24:48;251.07;;;94.85;;
42092;SDS011;28974;50.316;18.960;2022-11-25T08:36:48;256.77;;;98.57;;
42092;SDS011;28974;50.316;18.960;2022-11-25T08:48:49;243.05;;;95.20;;
42092;SDS011;28974;50.316;18.960;2022-11-25T09:00:49;236.50;;;91.97;;
42092;SDS011;28974;50.316;18.960;2022-11-25T09:12:49;226.73;;;91.80;;
42092;SDS011;28974;50.316;18.960;2022-11-25T09:24:50;209.35;;;88.82;;
42092;SDS011;28974;50.316;18.960;2022-11-25T09:36:51;188.48;;;79.85;;
42092;SDS011;28974;50.316;18.960;2022-11-25T10:01:13;195.75;;;78.07;;
42092;SDS011;28974;50.316;18.960;2022-11-25T10:13:19;175.95;;;74.63;;
42092;SDS011;28974;50.316;18.960;2022-11-25T10:25:25;188.00;;;73.83;;
42092;SDS011;28974;50.316;18.960;2022-11-25T10:37:30;133.05;;;56.17;;
42092;SDS011;28974;50.316;18.960;2022-11-25T11:01:52;149.40;;;62.75;;
42092;SDS011;28974;50.316;18.960;2022-11-25T11:14:13;152.55;;;65.07;;
42092;SDS011;28974;50.316;18.960;2022-11-25T11:26:21;152.45;;;63.85;;
42092;SDS011;28974;50.316;18.960;2022-11-25T11:50:30;147.18;;;60.30;;
42092;SDS011;28974;50.316;18.960;2022-11-25T12:02:34;153.07;;;66.07;;
42092;SDS011;28974;50.316;18.960;2022-11-25T12:14:44;171.75;;;67.93;;
42092;SDS011;28974;50.316;18.960;2022-11-25T13:14:57;121.57;;;49.72;;
42092;SDS011;28974;50.316;18.960;2022-11-25T13:27:00;120.68;;;49.95;;
42092;SDS011;28974;50.316;18.960;2022-11-25T13:39:04;112.63;;;49.03;;
42092;SDS011;28974;50.316;18.960;2022-11-25T13:51:19;130.90;;;54.67;;
42092;SDS011;28974;50.316;18.960;2022-11-25T14:15:37;127.90;;;56.22;;
42092;SDS011;28974;50.316;18.960;2022-11-25T14:27:44;152.77;;;67.07;;
42092;SDS011;28974;50.316;18.960;2022-11-25T14:39:49;164.48;;;73.75;;
42092;SDS011;28974;50.316;18.960;2022-11-25T14:51:51;180.00;;;78.77;;
42092;SDS011;28974;50.316;18.960;2022-11-25T15:04:00;169.20;;;73.80;;
42092;SDS011;28974;50.316;18.960;2022-11-25T15:28:14;179.45;;;79.25;;
42092;SDS011;28974;50.316;18.960;2022-11-25T15:40:31;187.27;;;79.05;;
42092;SDS011;28974;50.316;18.960;2022-11-25T15:52:32;210.90;;;91.90;;
42092;SDS011;28974;50.316;18.960;2022-11-25T16:04:34;227.27;;;99.38;;
42092;SDS011;28974;50.316;18.960;2022-11-25T16:16:34;225.20;;;100.85;;
42092;SDS011;28974;50.316;18.960;2022-11-25T16:28:34;237.18;;;105.07;;
42092;SDS011;28974;50.316;18.960;2022-11-25T16:40:35;285.20;;;122.85;;
42092;SDS011;28974;50.316;18.960;2022-11-25T16:52:37;204.38;;;96.30;;
42092;SDS011;28974;50.316;18.960;2022-11-25T17:04:37;215.43;;;94.35;;
42092;SDS011;28974;50.316;18.960;2022-11-25T17:16:37;189.68;;;77.65;;
42092;SDS011;28974;50.316;18.960;2022-11-25T17:28:40;251.73;;;107.90;;
42092;SDS011;28974;50.316;18.960;2022-11-25T17:40:41;212.38;;;96.68;;
42092;SDS011;28974;50.316;18.960;2022-11-25T17:52:42;213.07;;;90.07;;
42092;SDS011;28974;50.316;18.960;2022-11-25T18:04:42;196.25;;;78.05;;
42092;SDS011;28974;50.316;18.960;2022-11-25T18:16:43;183.90;;;79.75;;
42092;SDS011;28974;50.316;18.960;2022-11-25T18:28:43;168.73;;;69.20;;
42092;SDS011;28974;50.316;18.960;2022-11-25T18:40:43;220.23;;;92.70;;
42092;SDS011;28974;50.316;18.960;2022-11-25T18:52:44;252.23;;;106.72;;
42092;SDS011;28974;50.316;18.960;2022-11-25T19:04:44;237.32;;;101.63;;
42092;SDS011;28974;50.316;18.960;2022-11-25T19:16:45;219.55;;;89.40;;
42092;SDS011;28974;50.316;18.960;2022-11-25T19:28:47;218.98;;;85.20;;
42092;SDS011;28974;50.316;18.960;2022-11-25T19:40:49;179.60;;;74.68;;
42092;SDS011;28974;50.316;18.960;2022-11-25T19:52:49;187.35;;;75.03;;
42092;SDS011;28974;50.316;18.960;2022-11-25T20:04:51;209.15;;;87.85;;
42092;SDS011;28974;50.316;18.960;2022-11-25T20:16:53;205.18;;;85.18;;
42092;SDS011;28974;50.316;18.960;2022-11-25T20:28:53;182.20;;;75.95;;
42092;SDS011;28974;50.316;18.960;2022-11-25T20:40:55;269.45;;;107.93;;
42092;SDS011;28974;50.316;18.960;2022-11-25T20:52:56;234.43;;;92.30;;
42092;SDS011;28974;50.316;18.960;2022-11-25T21:04:56;196.65;;;80.38;;
42092;SDS011;28974;50.316;18.960;2022-11-25T21:16:57;182.85;;;72.93;;
42092;SDS011;28974;50.316;18.960;2022-11-25T21:28:57;181.95;;;75.13;;
42092;SDS011;28974;50.316;18.960;2022-11-25T21:40:57;175.13;;;73.38;;
42092;SDS011;28974;50.316;18.960;2022-11-25T21:52:58;165.00;;;72.43;;
42092;SDS011;28974;50.316;18.960;2022-11-25T22:04:59;167.70;;;66.95;;
42092;SDS011;28974;50.316;18.960;2022-11-25T22:17:00;172.07;;;66.95;;
42092;SDS011;28974;50.316;18.960;2022-11-25T22:29:02;172.88;;;67.68;;
42092;SDS011;28974;50.316;18.960;2022-11-25T22:41:03;161.73;;;62.88;;
42092;SDS011;28974;50.316;18.960;2022-11-25T22:53:04;176.77;;;67.32;;
42092;SDS011;28974;50.316;18.960;2022-11-25T23:17:23;174.00;;;68.57;;
42092;SDS011;28974;50.316;18.960;2022-11-25T23:29:24;185.50;;;72.68;;
42092;SDS011;28974;50.316;18.960;2022-11-25T23:41:25;215.82;;;81.35;;
42092;SDS011;28974;50.316;18.960;2022-11-25T23:53:30;167.35;;;67.65;;
